Tecumseh, Canada
Current Conditions -  °F | °C
As of 8:00 PM on Friday 24 Oct 2014 (Local Time) from CYQG Reporting Station
Scattered Clouds Scattered Clouds  
Wind Chill: 12°   Ceiling: Unl
Heat Index: 12°   Visibility: 15mi
Dew Point:   Wind: 7mph
Humidity: 72%   Direction: 230°SW
Pressure: 29.99"   Gusts: NA
Location:  42.32°N, 82.89°W
Report Text: CYQG 250000Z 23006KT 15SM FEW035 SCT250 12/07 A2999 RMK SC1CI3 SLP157
Loading
Personal Weather Stations






























Interactive Weather Map
Tropical Storm Tracking
New forecast layout! Learn more

10-Day Weather Forecast

Advertisements
Track Severe Weather on mobile